Terminal Aerodrome Forecast
Issued by NWS Binghamton, NY

Home | Current Version | Previous Version | Text Only | Print | Product List | Glossary On
Versions: 1 2 3 4 5 6 7 8 9 10 11 12 13 14 15 16 17 18 19
131
FTUS41 KBGM 261135
TAFAVP
TAF
KAVP 261135Z 2612/2712 10006KT P6SM FEW250
     FM261600 19007G15KT P6SM SCT200
     FM270200 21008KT P6SM -SHRA OVC025
     FM270500 21007KT 3SM -SHRA BR OVC008
     FM270800 22004KT P6SM OVC015
     FM271000 25004KT P6SM BKN035=

USA.gov is the U.S. government's official web portal to all federal, state and local government web resources and services.